Nearby Airport METAR Reports

 

KVSF - Springfield, Vermont, USA
Distance from station: WSW 8mi, 12km
Updated: Sun, 10/22/2017 2:54pm EDT
Clear
Clear
 Wind from SE
Wind: SE 8 mph , 13 km/h
Temperature: 75°F , 24°C
Dew Point: 39°F , 4°C
Humidity: 27%
Barometer: 30.34 inHg , 1027.4 hPa
Clouds: Clear
Visibility: 10 miles , 16 km
2017/10/22 18:54 KVSF 221854Z AUTO 14007KT 10SM CLR 24/04 A3034 RMK AO2 SLP275 T02390044
KLEB - Lebanon, New Hampshire, USA
Distance from station: N 18mi, 29km
Updated: Sun, 10/22/2017 2:53pm EDT
Clear
Clear
 Wind from calm
Wind: Calm
Temperature: 73°F , 23°C
Dew Point: 52°F , 11°C
Humidity: 47%
Barometer: 30.33 inHg , 1027.1 hPa
Clouds: Clear
Visibility: 10 miles , 16 km
2017/10/22 18:53 KLEB 221853Z 00000KT 10SM CLR 23/11 A3033 RMK AO2 SLP268 T02280111
KRUT - Rutland State, Vermont, USA
Distance from station: WNW 31mi, 50km
Updated: Sun, 10/22/2017 2:56pm EDT
Clear
Clear
 Wind from varies
Wind: varies 3 mph , 6 km/h
Temperature: 73°F , 23°C
Dew Point: 43°F , 6°C
Humidity: 33%
Barometer: 30.32 inHg , 1026.8 hPa
Clouds: Clear
Visibility: 10 miles , 16 km
2017/10/22 18:56 KRUT 221856Z AUTO VRB03KT 10SM CLR 23/06 A3032 RMK AO2 SLP285 T02330056 $
 
KEEN - Keene/Dillant, New Hampshire, USA
Distance from station: S 34mi, 55km
Updated: Sun, 10/22/2017 2:56pm EDT
Clear
Clear
 Wind from calm
Wind: Calm
Temperature: 82°F , 28°C
Dew Point: 52°F , 11°C
Humidity: 35%
Barometer: 30.35 inHg , 1027.8 hPa
Clouds: Clear
Visibility: 9 miles , 14 km
2017/10/22 18:56 KEEN 221856Z AUTO 00000KT 9SM CLR 28/11 A3035 RMK AO2 SLP295 T02780106
K1P1 - Plymouth, New Hampshire, USA
Distance from station: NE 42mi, 67km
Updated: Sun, 10/22/2017 3:15pm EDT
Clear
Clear
 Wind from E
Wind: E 7 mph , 11 km/h
Temperature: 68°F , 20°C
Dew Point: 50°F , 10°C
Humidity: 53%
Barometer: 30.37 inHg , 1028.4 hPa
Clouds: Clear
Visibility: 10 miles , 16 km
2017/10/22 19:15 K1P1 221915Z AUTO 08006KT 10SM CLR 20/10 A3037 RMK AO2 T01990097
KAFN - Jaffrey, New Hampshire, USA
Distance from station: SSE 44mi, 70km
Updated: Sun, 10/22/2017 2:52pm EDT
Clear
Clear
 Wind from varies
Wind: varies 6 mph , 9 km/h
Temperature: 77°F , 25°C
Dew Point: 46°F , 8°C
Humidity: 34%
Barometer: 30.37 inHg , 1028.4 hPa
Clouds: Clear
Visibility: 10 miles , 16 km
2017/10/22 18:52 KAFN 221852Z AUTO VRB05KT 10SM CLR 25/08 A3037 RMK AO2 SLP289 T02500078
 
KCON - Concord, New Hampshire, USA
Distance from station: ESE 45mi, 73km
Updated: Sun, 10/22/2017 2:51pm EDT
Clear
Clear
 Wind from ESE
Wind: ESE 8 mph , 13 km/h
Temperature: 72°F , 22°C
Dew Point: 52°F , 11°C
Humidity: 50%
Barometer: 30.37 inHg , 1028.4 hPa
Clouds: Clear
Visibility: 10 miles , 16 km
2017/10/22 18:51 KCON 221851Z AUTO 11007KT 10SM CLR 22/11 A3037 RMK AO2 SLP285 T02220106
KLCI - Laconia Muni, New Hampshire, USA
Distance from station: ENE 49mi, 80km
Updated: Sun, 10/22/2017 2:56pm EDT
Clear
Clear
 Wind from E
Wind: E 10 mph , 17 km/h
Temperature: 68°F , 20°C
Dew Point: 54°F , 12°C
Humidity: 60%
Barometer: 30.39 inHg , 1029.1 hPa
Clouds: Clear
Visibility: 10 miles , 16 km
2017/10/22 18:56 KLCI 221856Z AUTO 08009KT 10SM CLR 20/12 A3039 RMK AO2 SLP307 T02000117
KDDH - Bennington, Vermont, USA
Distance from station: SW 55mi, 89km
Updated: Sun, 10/22/2017 12:54pm EDT
NOT Current
Clear
Clear
 Wind from varies
Wind: varies 3 mph , 6 km/h
Temperature: 79°F , 26°C
Dew Point: 41°F , 5°C
Humidity: 26%
Barometer: 30.35 inHg , 1027.8 hPa
Clouds: Clear
Visibility: 10 miles , 16 km
2017/10/22 16:54 KDDH 221654Z AUTO VRB03KT 10SM CLR 26/05 A3035 RMK AO2 SLP275 T02560050
 
K6B0 - Middlebury, Vermont, USA
Distance from station: NW 56mi, 90km
Updated: Sun, 10/22/2017 3:15pm EDT
Clear
Clear
 Wind from SSW
Wind: SSW 7 mph , 11 km/h
Temperature: 75°F , 24°C
Dew Point: 39°F , 4°C
Humidity: 27%
Barometer: 30.30 inHg , 1026.1 hPa
Clouds: Clear
Visibility: 10 miles , 16 km
2017/10/22 19:15 K6B0 221915Z AUTO 20006KT 10SM CLR 24/04 A3030 RMK AO2 T02350044
KMHT - Manchester, New Hampshire, USA
Distance from station: ESE 56mi, 90km
Updated: Sun, 10/22/2017 2:53pm EDT
Mostly cloudy
Mostly cloudy
 Wind from ESE
Wind: ESE 8 mph , 13 km/h
Temperature: 73°F , 23°C
Dew Point: 54°F , 12°C
Humidity: 50%
Barometer: 30.36 inHg , 1028.1 hPa
Clouds: Mostly cloudy
Visibility: 10 miles , 16 km
Cloud details: Mostly cloudy 25000 ft
2017/10/22 18:53 KMHT 221853Z 11007KT 10SM BKN250 23/12 A3036 RMK AO2 SLP291 T02280117
KORE - Orange, Massachusetts, USA
Distance from station: S 56mi, 90km
Updated: Sun, 10/22/2017 2:52pm EDT
Clear
Clear
 Wind from SSW
Wind: SSW 5 mph , 7 km/h
Temperature: 72°F , 22°C
Dew Point: 48°F , 9°C
Humidity: 44%
Barometer: 30.36 inHg , 1028.1 hPa
Clouds: Clear
Visibility: 10 miles , 16 km
2017/10/22 18:52 KORE 221852Z AUTO 20004KT 10SM CLR 22/09 A3036 RMK AO2 SLP284 T02220089 TSNO
 
KMPV - Montpelier/Barre, Vermont, USA
Distance from station: N 58mi, 93km
Updated: Fri, 10/20/2017 6:51am EDT
NOT Current
Clear
Clear
 Wind from calm
Wind: Calm
Temperature: 48°F , 9°C
Dew Point: 36°F , 2°C
Humidity: 62%
Barometer: 30.07 inHg , 1018.3 hPa
Clouds: Clear
Visibility: 10 miles , 16 km
2017/10/20 10:51 KMPV 201051Z AUTO 00000KT 10SM CLR 09/02 A3007 RMK AO2 SLP185 T00890017
KASH - Nashua/Boire Fld, New Hampshire, USA
Distance from station: SE 59mi, 95km
Updated: Sun, 10/22/2017 2:56pm EDT
Clear
Clear
 Wind from SSE
Wind: SSE 7 mph , 11 km/h
Temperature: 75°F , 24°C
Dew Point: 52°F , 11°C
Humidity: 44%
Barometer: 30.37 inHg , 1028.4 hPa
Clouds: Clear
Visibility: 10 miles , 16 km
2017/10/22 18:56 KASH 221856Z 15006KT 10SM CLR 24/11 A3037 RMK AO2 SLP296 T02390106
KAQW - North Adams, Massachusetts, USA
Distance from station: SW 62mi, 99km
Updated: Sun, 10/22/2017 2:52pm EDT
Clear
Clear
 Wind from WSW
Wind: WSW 8 mph , 13 km/h
Temperature: 77°F , 25°C
Dew Point: 34°F , 1°C
Humidity: 21%
Barometer: 30.32 inHg , 1026.8 hPa
Clouds: Clear
Visibility: 10 miles , 16 km
2017/10/22 18:52 KAQW 221852Z AUTO 24007KT 10SM CLR 25/01 A3032 RMK AO2 SLP270 T02500006
 
KGFL - Glens Falls, New York, USA
Distance from station: W 63mi, 101km
Updated: Sun, 10/22/2017 2:53pm EDT
Clear
Clear
 Wind from S
Wind: S 6 mph , 9 km/h
Temperature: 72°F , 22°C
Dew Point: 43°F , 6°C
Humidity: 36%
Barometer: 30.32 inHg , 1026.8 hPa
Clouds: Clear
Visibility: 10 miles , 16 km
2017/10/22 18:53 KGFL 221853Z AUTO 19005KT 10SM CLR 22/06 A3032 RMK AO2 SLP270 T02170061
KFIT - Fitchburg, Massachusetts, USA
Distance from station: SSE 65mi, 105km
Updated: Sun, 10/22/2017 2:52pm EDT
Clear
Clear
 Wind from varies
Wind: varies 3 mph , 6 km/h
Temperature: 77°F , 25°C
Dew Point: 48°F , 9°C
Humidity: 36%
Barometer: 30.37 inHg , 1028.4 hPa
Clouds: Clear
Visibility: 10 miles , 16 km
2017/10/22 18:52 KFIT 221852Z AUTO VRB03KT 10SM CLR 25/09 A3037 RMK AO2 SLP285 T02500094
KDAW - Rochester, New Hampshire, USA
Distance from station: E 73mi, 118km
Updated: Sun, 10/22/2017 2:51pm EDT
Clear
Clear
 Wind from E
Wind: E 7 mph , 11 km/h
Temperature: 63°F , 17°C
Dew Point: 52°F , 11°C
Humidity: 68%
Barometer: 30.40 inHg , 1029.5 hPa
Clouds: Clear
Visibility: 10 miles , 16 km
2017/10/22 18:51 KDAW 221851Z AUTO 09006KT 10SM CLR 17/11 A3040 RMK AO2 SLP293 T01670111
 
K1V4 - St. Johnsbury, Vermont, USA
Distance from station: NNE 74mi, 119km
Updated: Sun, 10/22/2017 2:54pm EDT

 
Temperature: 73°F , 23°C
Dew Point: 46°F , 8°C
Humidity: 38%
Barometer: 30.31 inHg , 1026.4 hPa
2017/10/22 18:54 K1V4 221854Z AUTO 23/08 A3031 RMK AO1 SLP261 T02280078
KLWM - Lawrence, Massachusetts, USA
Distance from station: SE 77mi, 124km
Updated: Sun, 10/22/2017 2:54pm EDT
Clear
Clear
 Wind from E
Wind: E 12 mph , 19 km/h
Temperature: 66°F , 19°C
Dew Point: 55°F , 13°C
Humidity: 68%
Barometer: 30.41 inHg , 1029.8 hPa
Clouds: Clear
Visibility: 10 miles , 16 km
2017/10/22 18:54 KLWM 221854Z 09010KT 10SM CLR 19/13 A3041 RMK AO2 SLP298 T01890128

free counter page views since 4/29/2009